sensor_id;sensor_type;location;lat;lon;timestamp;P1;durP1;ratioP1;P2;durP2;ratioP2
1460;SDS011;724;49.910;12.530;2023-09-12T00:00:09;8.83;;;8.33;;
1460;SDS011;724;49.910;12.530;2023-09-12T00:02:36;8.80;;;8.30;;
1460;SDS011;724;49.910;12.530;2023-09-12T00:05:03;8.50;;;8.00;;
1460;SDS011;724;49.910;12.530;2023-09-12T00:07:31;8.30;;;7.90;;
1460;SDS011;724;49.910;12.530;2023-09-12T00:09:59;9.00;;;8.50;;
1460;SDS011;724;49.910;12.530;2023-09-12T00:12:26;9.00;;;8.50;;
1460;SDS011;724;49.910;12.530;2023-09-12T00:14:53;8.90;;;8.40;;
1460;SDS011;724;49.910;12.530;2023-09-12T00:17:20;8.37;;;7.93;;
1460;SDS011;724;49.910;12.530;2023-09-12T00:19:47;7.90;;;7.50;;
1460;SDS011;724;49.910;12.530;2023-09-12T00:22:14;8.50;;;8.00;;
1460;SDS011;724;49.910;12.530;2023-09-12T00:24:40;8.70;;;8.20;;
1460;SDS011;724;49.910;12.530;2023-09-12T00:27:08;8.00;;;7.60;;
1460;SDS011;724;49.910;12.530;2023-09-12T00:29:35;8.80;;;8.30;;
1460;SDS011;724;49.910;12.530;2023-09-12T00:32:02;8.70;;;8.20;;
1460;SDS011;724;49.910;12.530;2023-09-12T00:34:29;9.03;;;8.53;;
1460;SDS011;724;49.910;12.530;2023-09-12T00:36:56;8.90;;;8.40;;
1460;SDS011;724;49.910;12.530;2023-09-12T00:39:23;9.10;;;8.60;;
1460;SDS011;724;49.910;12.530;2023-09-12T00:41:49;8.80;;;8.30;;
1460;SDS011;724;49.910;12.530;2023-09-12T00:44:17;8.37;;;7.93;;
1460;SDS011;724;49.910;12.530;2023-09-12T00:46:44;8.80;;;8.30;;
1460;SDS011;724;49.910;12.530;2023-09-12T00:49:14;8.30;;;7.90;;
1460;SDS011;724;49.910;12.530;2023-09-12T00:51:42;8.80;;;8.30;;
1460;SDS011;724;49.910;12.530;2023-09-12T00:54:10;8.70;;;8.20;;
1460;SDS011;724;49.910;12.530;2023-09-12T00:56:37;8.43;;;7.97;;
1460;SDS011;724;49.910;12.530;2023-09-12T00:59:04;9.00;;;8.50;;
1460;SDS011;724;49.910;12.530;2023-09-12T01:01:33;8.57;;;8.07;;
1460;SDS011;724;49.910;12.530;2023-09-12T01:04:01;8.80;;;8.30;;
1460;SDS011;724;49.910;12.530;2023-09-12T01:06:28;8.60;;;8.10;;
1460;SDS011;724;49.910;12.530;2023-09-12T01:08:57;8.80;;;8.30;;
1460;SDS011;724;49.910;12.530;2023-09-12T01:11:24;9.00;;;8.50;;
1460;SDS011;724;49.910;12.530;2023-09-12T01:13:52;8.00;;;7.60;;
1460;SDS011;724;49.910;12.530;2023-09-12T01:16:19;7.67;;;7.27;;
1460;SDS011;724;49.910;12.530;2023-09-12T01:18:47;8.80;;;8.30;;
1460;SDS011;724;49.910;12.530;2023-09-12T01:21:22;8.20;;;7.80;;
1460;SDS011;724;49.910;12.530;2023-09-12T01:24:32;8.43;;;7.97;;
1460;SDS011;724;49.910;12.530;2023-09-12T01:27:22;8.00;;;7.60;;
1460;SDS011;724;49.910;12.530;2023-09-12T01:29:55;8.70;;;8.20;;
1460;SDS011;724;49.910;12.530;2023-09-12T01:32:23;7.83;;;7.43;;
1460;SDS011;724;49.910;12.530;2023-09-12T01:34:50;7.70;;;7.30;;
1460;SDS011;724;49.910;12.530;2023-09-12T01:37:17;7.90;;;7.50;;
1460;SDS011;724;49.910;12.530;2023-09-12T01:39:44;7.23;;;6.83;;
1460;SDS011;724;49.910;12.530;2023-09-12T01:42:11;7.40;;;7.00;;
1460;SDS011;724;49.910;12.530;2023-09-12T01:44:43;8.77;;;8.27;;
1460;SDS011;724;49.910;12.530;2023-09-12T01:47:11;8.60;;;8.10;;
1460;SDS011;724;49.910;12.530;2023-09-12T01:49:41;8.43;;;7.97;;
1460;SDS011;724;49.910;12.530;2023-09-12T01:52:11;8.30;;;7.90;;
1460;SDS011;724;49.910;12.530;2023-09-12T01:54:39;8.10;;;7.70;;
1460;SDS011;724;49.910;12.530;2023-09-12T01:57:08;7.00;;;6.60;;
1460;SDS011;724;49.910;12.530;2023-09-12T01:59:35;7.30;;;6.90;;
1460;SDS011;724;49.910;12.530;2023-09-12T02:02:03;8.10;;;7.70;;
1460;SDS011;724;49.910;12.530;2023-09-12T02:04:31;8.10;;;7.70;;
1460;SDS011;724;49.910;12.530;2023-09-12T02:06:58;8.70;;;8.20;;
1460;SDS011;724;49.910;12.530;2023-09-12T02:09:24;7.43;;;7.03;;
1460;SDS011;724;49.910;12.530;2023-09-12T02:11:51;7.60;;;7.20;;
1460;SDS011;724;49.910;12.530;2023-09-12T02:14:18;7.90;;;7.50;;
1460;SDS011;724;49.910;12.530;2023-09-12T02:16:45;7.97;;;7.57;;
1460;SDS011;724;49.910;12.530;2023-09-12T02:19:13;8.00;;;7.60;;
1460;SDS011;724;49.910;12.530;2023-09-12T02:21:40;7.57;;;7.17;;
1460;SDS011;724;49.910;12.530;2023-09-12T02:24:07;7.63;;;7.23;;
1460;SDS011;724;49.910;12.530;2023-09-12T02:26:34;7.93;;;7.53;;
1460;SDS011;724;49.910;12.530;2023-09-12T02:29:02;7.67;;;7.27;;
1460;SDS011;724;49.910;12.530;2023-09-12T02:31:30;7.80;;;7.40;;
1460;SDS011;724;49.910;12.530;2023-09-12T02:33:57;7.50;;;7.10;;
1460;SDS011;724;49.910;12.530;2023-09-12T02:36:25;7.27;;;6.87;;
1460;SDS011;724;49.910;12.530;2023-09-12T02:38:53;7.70;;;7.30;;
1460;SDS011;724;49.910;12.530;2023-09-12T02:41:19;7.90;;;7.50;;
1460;SDS011;724;49.910;12.530;2023-09-12T02:43:46;7.97;;;7.57;;
1460;SDS011;724;49.910;12.530;2023-09-12T02:46:13;7.90;;;7.50;;
1460;SDS011;724;49.910;12.530;2023-09-12T02:48:39;7.77;;;7.37;;
1460;SDS011;724;49.910;12.530;2023-09-12T02:51:07;7.50;;;7.10;;
1460;SDS011;724;49.910;12.530;2023-09-12T02:53:35;7.27;;;6.87;;
1460;SDS011;724;49.910;12.530;2023-09-12T02:56:02;7.20;;;6.80;;
1460;SDS011;724;49.910;12.530;2023-09-12T02:58:29;8.13;;;7.73;;
1460;SDS011;724;49.910;12.530;2023-09-12T03:00:56;7.90;;;7.50;;
1460;SDS011;724;49.910;12.530;2023-09-12T03:03:23;7.97;;;7.57;;
1460;SDS011;724;49.910;12.530;2023-09-12T03:05:56;7.57;;;7.17;;
1460;SDS011;724;49.910;12.530;2023-09-12T03:08:24;7.50;;;7.10;;
1460;SDS011;724;49.910;12.530;2023-09-12T03:10:54;7.30;;;6.90;;
1460;SDS011;724;49.910;12.530;2023-09-12T03:13:21;7.80;;;7.40;;
1460;SDS011;724;49.910;12.530;2023-09-12T03:15:49;7.50;;;7.10;;
1460;SDS011;724;49.910;12.530;2023-09-12T03:18:16;7.40;;;7.00;;
1460;SDS011;724;49.910;12.530;2023-09-12T03:20:43;6.70;;;6.30;;
1460;SDS011;724;49.910;12.530;2023-09-12T03:23:09;7.00;;;6.60;;
1460;SDS011;724;49.910;12.530;2023-09-12T03:25:36;7.30;;;6.90;;
1460;SDS011;724;49.910;12.530;2023-09-12T03:28:05;7.00;;;6.60;;
1460;SDS011;724;49.910;12.530;2023-09-12T03:30:33;7.00;;;6.60;;
1460;SDS011;724;49.910;12.530;2023-09-12T03:33:01;7.10;;;6.70;;
1460;SDS011;724;49.910;12.530;2023-09-12T03:35:28;7.20;;;6.80;;
1460;SDS011;724;49.910;12.530;2023-09-12T03:37:55;6.93;;;6.53;;
1460;SDS011;724;49.910;12.530;2023-09-12T03:40:22;6.90;;;6.50;;
1460;SDS011;724;49.910;12.530;2023-09-12T03:42:48;7.13;;;6.73;;
1460;SDS011;724;49.910;12.530;2023-09-12T03:45:17;6.80;;;6.40;;
1460;SDS011;724;49.910;12.530;2023-09-12T03:47:43;6.80;;;6.40;;
1460;SDS011;724;49.910;12.530;2023-09-12T03:50:15;6.70;;;6.30;;
1460;SDS011;724;49.910;12.530;2023-09-12T03:52:41;6.53;;;6.13;;
1460;SDS011;724;49.910;12.530;2023-09-12T03:55:08;6.60;;;6.20;;
1460;SDS011;724;49.910;12.530;2023-09-12T03:57:35;6.60;;;6.20;;
1460;SDS011;724;49.910;12.530;2023-09-12T04:00:02;6.20;;;5.90;;
1460;SDS011;724;49.910;12.530;2023-09-12T04:02:32;6.97;;;6.57;;
1460;SDS011;724;49.910;12.530;2023-09-12T04:04:58;7.00;;;6.60;;
1460;SDS011;724;49.910;12.530;2023-09-12T04:07:25;6.93;;;6.53;;
1460;SDS011;724;49.910;12.530;2023-09-12T04:09:52;6.80;;;6.40;;
1460;SDS011;724;49.910;12.530;2023-09-12T04:12:19;6.57;;;6.17;;
1460;SDS011;724;49.910;12.530;2023-09-12T04:14:45;7.10;;;6.70;;
1460;SDS011;724;49.910;12.530;2023-09-12T04:17:15;6.80;;;6.40;;
1460;SDS011;724;49.910;12.530;2023-09-12T04:19:44;6.93;;;6.53;;
1460;SDS011;724;49.910;12.530;2023-09-12T04:22:10;7.00;;;6.60;;
1460;SDS011;724;49.910;12.530;2023-09-12T04:24:37;6.00;;;5.70;;
1460;SDS011;724;49.910;12.530;2023-09-12T04:27:04;6.80;;;6.40;;
1460;SDS011;724;49.910;12.530;2023-09-12T04:29:32;6.80;;;6.40;;
1460;SDS011;724;49.910;12.530;2023-09-12T04:32:00;8.23;;;7.83;;
1460;SDS011;724;49.910;12.530;2023-09-12T04:34:27;8.03;;;7.63;;
1460;SDS011;724;49.910;12.530;2023-09-12T04:36:55;7.70;;;7.30;;
1460;SDS011;724;49.910;12.530;2023-09-12T04:39:22;7.80;;;7.40;;
1460;SDS011;724;49.910;12.530;2023-09-12T04:41:49;7.70;;;7.30;;
1460;SDS011;724;49.910;12.530;2023-09-12T04:44:16;8.20;;;7.80;;
1460;SDS011;724;49.910;12.530;2023-09-12T04:46:43;8.10;;;7.70;;
1460;SDS011;724;49.910;12.530;2023-09-12T04:49:09;7.90;;;7.50;;
1460;SDS011;724;49.910;12.530;2023-09-12T04:51:36;8.10;;;7.70;;
1460;SDS011;724;49.910;12.530;2023-09-12T04:54:04;8.53;;;8.03;;
1460;SDS011;724;49.910;12.530;2023-09-12T04:56:31;8.20;;;7.80;;
1460;SDS011;724;49.910;12.530;2023-09-12T04:58:58;8.60;;;8.10;;
1460;SDS011;724;49.910;12.530;2023-09-12T05:01:25;8.23;;;7.83;;
1460;SDS011;724;49.910;12.530;2023-09-12T05:03:52;7.90;;;7.50;;
1460;SDS011;724;49.910;12.530;2023-09-12T05:06:18;8.57;;;8.07;;
1460;SDS011;724;49.910;12.530;2023-09-12T05:08:45;8.80;;;8.30;;
1460;SDS011;724;49.910;12.530;2023-09-12T05:11:13;8.30;;;7.90;;
1460;SDS011;724;49.910;12.530;2023-09-12T05:13:40;8.90;;;8.40;;
1460;SDS011;724;49.910;12.530;2023-09-12T05:16:07;8.30;;;7.90;;
1460;SDS011;724;49.910;12.530;2023-09-12T05:18:34;7.97;;;7.57;;
1460;SDS011;724;49.910;12.530;2023-09-12T05:21:00;7.70;;;7.30;;
1460;SDS011;724;49.910;12.530;2023-09-12T05:23:27;8.80;;;8.30;;
1460;SDS011;724;49.910;12.530;2023-09-12T05:25:54;8.30;;;7.90;;
1460;SDS011;724;49.910;12.530;2023-09-12T05:28:22;8.20;;;7.80;;
1460;SDS011;724;49.910;12.530;2023-09-12T05:30:49;8.90;;;8.40;;
1460;SDS011;724;49.910;12.530;2023-09-12T05:33:16;8.70;;;8.20;;
1460;SDS011;724;49.910;12.530;2023-09-12T05:35:43;8.30;;;7.90;;
1460;SDS011;724;49.910;12.530;2023-09-12T05:38:10;8.60;;;8.10;;
1460;SDS011;724;49.910;12.530;2023-09-12T05:40:37;8.90;;;8.40;;
1460;SDS011;724;49.910;12.530;2023-09-12T05:43:04;8.60;;;8.10;;
1460;SDS011;724;49.910;12.530;2023-09-12T05:45:32;9.03;;;8.53;;
1460;SDS011;724;49.910;12.530;2023-09-12T05:47:59;9.20;;;8.70;;
1460;SDS011;724;49.910;12.530;2023-09-12T05:50:26;9.50;;;9.00;;
1460;SDS011;724;49.910;12.530;2023-09-12T05:52:52;10.07;;;9.57;;
1460;SDS011;724;49.910;12.530;2023-09-12T05:55:19;9.90;;;9.40;;
1460;SDS011;724;49.910;12.530;2023-09-12T05:57:46;10.30;;;9.80;;
1460;SDS011;724;49.910;12.530;2023-09-12T06:00:17;10.20;;;9.70;;
1460;SDS011;724;49.910;12.530;2023-09-12T06:02:45;10.83;;;10.23;;
1460;SDS011;724;49.910;12.530;2023-09-12T06:05:12;10.77;;;10.17;;
1460;SDS011;724;49.910;12.530;2023-09-12T06:07:39;10.77;;;10.17;;
1460;SDS011;724;49.910;12.530;2023-09-12T06:10:06;10.93;;;10.33;;
1460;SDS011;724;49.910;12.530;2023-09-12T06:12:34;10.90;;;10.30;;
1460;SDS011;724;49.910;12.530;2023-09-12T06:15:01;11.17;;;10.57;;
1460;SDS011;724;49.910;12.530;2023-09-12T06:17:29;10.40;;;9.90;;
1460;SDS011;724;49.910;12.530;2023-09-12T06:19:57;10.80;;;10.20;;
1460;SDS011;724;49.910;12.530;2023-09-12T06:22:24;11.00;;;10.40;;
1460;SDS011;724;49.910;12.530;2023-09-12T06:24:51;11.10;;;10.50;;
1460;SDS011;724;49.910;12.530;2023-09-12T06:27:18;11.07;;;10.47;;
1460;SDS011;724;49.910;12.530;2023-09-12T06:29:45;10.70;;;10.10;;
1460;SDS011;724;49.910;12.530;2023-09-12T06:32:13;11.00;;;10.40;;
1460;SDS011;724;49.910;12.530;2023-09-12T06:34:40;11.23;;;10.63;;
1460;SDS011;724;49.910;12.530;2023-09-12T06:37:08;11.40;;;10.80;;
1460;SDS011;724;49.910;12.530;2023-09-12T06:39:36;11.50;;;10.90;;
1460;SDS011;724;49.910;12.530;2023-09-12T06:42:03;11.50;;;10.90;;
1460;SDS011;724;49.910;12.530;2023-09-12T06:44:30;11.90;;;11.30;;
1460;SDS011;724;49.910;12.530;2023-09-12T06:46:57;12.00;;;11.40;;
1460;SDS011;724;49.910;12.530;2023-09-12T06:49:24;11.73;;;11.13;;
1460;SDS011;724;49.910;12.530;2023-09-12T06:51:50;11.80;;;11.20;;
1460;SDS011;724;49.910;12.530;2023-09-12T06:54:19;11.90;;;11.30;;
1460;SDS011;724;49.910;12.530;2023-09-12T06:56:45;11.90;;;11.30;;
1460;SDS011;724;49.910;12.530;2023-09-12T06:59:12;12.40;;;11.80;;
1460;SDS011;724;49.910;12.530;2023-09-12T07:01:39;12.40;;;11.80;;
1460;SDS011;724;49.910;12.530;2023-09-12T07:04:06;12.67;;;12.00;;
1460;SDS011;724;49.910;12.530;2023-09-12T07:06:32;12.30;;;11.70;;
1460;SDS011;724;49.910;12.530;2023-09-12T07:08:59;12.43;;;11.83;;
1460;SDS011;724;49.910;12.530;2023-09-12T07:11:29;12.63;;;11.97;;
1460;SDS011;724;49.910;12.530;2023-09-12T07:13:56;12.80;;;12.10;;
1460;SDS011;724;49.910;12.530;2023-09-12T07:16:23;13.00;;;12.30;;
1460;SDS011;724;49.910;12.530;2023-09-12T07:18:50;13.07;;;12.37;;
1460;SDS011;724;49.910;12.530;2023-09-12T07:21:17;12.73;;;12.03;;
1460;SDS011;724;49.910;12.530;2023-09-12T07:23:44;12.70;;;12.00;;
1460;SDS011;724;49.910;12.530;2023-09-12T07:26:11;12.57;;;11.93;;
1460;SDS011;724;49.910;12.530;2023-09-12T07:28:41;12.90;;;12.20;;
1460;SDS011;724;49.910;12.530;2023-09-12T07:31:07;12.40;;;11.80;;
1460;SDS011;724;49.910;12.530;2023-09-12T07:33:34;12.50;;;11.90;;
1460;SDS011;724;49.910;12.530;2023-09-12T07:36:01;12.50;;;11.90;;
1460;SDS011;724;49.910;12.530;2023-09-12T07:38:29;12.40;;;11.80;;
1460;SDS011;724;49.910;12.530;2023-09-12T07:40:57;12.20;;;11.60;;
1460;SDS011;724;49.910;12.530;2023-09-12T07:43:25;12.30;;;11.70;;
1460;SDS011;724;49.910;12.530;2023-09-12T07:45:55;12.73;;;12.03;;
1460;SDS011;724;49.910;12.530;2023-09-12T07:48:23;13.00;;;12.30;;
1460;SDS011;724;49.910;12.530;2023-09-12T07:50:50;12.90;;;12.20;;
1460;SDS011;724;49.910;12.530;2023-09-12T07:53:16;12.90;;;12.20;;
1460;SDS011;724;49.910;12.530;2023-09-12T07:55:43;12.90;;;12.20;;
1460;SDS011;724;49.910;12.530;2023-09-12T07:58:11;13.10;;;12.40;;
1460;SDS011;724;49.910;12.530;2023-09-12T08:00:39;13.10;;;12.40;;
1460;SDS011;724;49.910;12.530;2023-09-12T08:03:07;12.97;;;12.27;;
1460;SDS011;724;49.910;12.530;2023-09-12T08:05:34;13.30;;;12.60;;
1460;SDS011;724;49.910;12.530;2023-09-12T08:08:01;13.30;;;12.60;;
1460;SDS011;724;49.910;12.530;2023-09-12T08:10:28;13.40;;;12.70;;
1460;SDS011;724;49.910;12.530;2023-09-12T08:12:55;13.70;;;13.00;;
1460;SDS011;724;49.910;12.530;2023-09-12T08:15:22;12.90;;;12.20;;
1460;SDS011;724;49.910;12.530;2023-09-12T08:17:49;13.00;;;12.30;;
1460;SDS011;724;49.910;12.530;2023-09-12T08:20:18;12.40;;;11.80;;
1460;SDS011;724;49.910;12.530;2023-09-12T08:22:45;13.00;;;12.30;;
1460;SDS011;724;49.910;12.530;2023-09-12T08:25:12;13.30;;;12.60;;
1460;SDS011;724;49.910;12.530;2023-09-12T08:27:39;13.37;;;12.67;;
1460;SDS011;724;49.910;12.530;2023-09-12T08:30:08;13.20;;;12.50;;
1460;SDS011;724;49.910;12.530;2023-09-12T08:32:37;12.90;;;12.20;;
1460;SDS011;724;49.910;12.530;2023-09-12T08:35:05;13.00;;;12.30;;
1460;SDS011;724;49.910;12.530;2023-09-12T08:37:33;12.50;;;11.90;;
1460;SDS011;724;49.910;12.530;2023-09-12T08:40:00;13.43;;;12.73;;
1460;SDS011;724;49.910;12.530;2023-09-12T08:42:32;13.20;;;12.50;;
1460;SDS011;724;49.910;12.530;2023-09-12T08:45:05;12.97;;;12.27;;
1460;SDS011;724;49.910;12.530;2023-09-12T08:47:34;12.77;;;12.07;;
1460;SDS011;724;49.910;12.530;2023-09-12T08:50:04;12.90;;;12.20;;
1460;SDS011;724;49.910;12.530;2023-09-12T08:52:33;12.70;;;12.00;;
1460;SDS011;724;49.910;12.530;2023-09-12T08:55:00;12.50;;;11.90;;
1460;SDS011;724;49.910;12.530;2023-09-12T08:57:27;13.00;;;12.30;;
1460;SDS011;724;49.910;12.530;2023-09-12T08:59:56;12.80;;;12.10;;
1460;SDS011;724;49.910;12.530;2023-09-12T09:02:23;13.10;;;12.40;;
1460;SDS011;724;49.910;12.530;2023-09-12T09:04:49;13.03;;;12.33;;
1460;SDS011;724;49.910;12.530;2023-09-12T09:07:17;13.00;;;12.30;;
1460;SDS011;724;49.910;12.530;2023-09-12T09:09:47;12.90;;;12.20;;
1460;SDS011;724;49.910;12.530;2023-09-12T09:12:16;13.23;;;12.53;;
1460;SDS011;724;49.910;12.530;2023-09-12T09:14:43;13.07;;;12.37;;
1460;SDS011;724;49.910;12.530;2023-09-12T09:17:10;13.10;;;12.40;;
1460;SDS011;724;49.910;12.530;2023-09-12T09:19:41;13.10;;;12.40;;
1460;SDS011;724;49.910;12.530;2023-09-12T09:22:08;13.20;;;12.50;;
1460;SDS011;724;49.910;12.530;2023-09-12T09:24:35;12.80;;;12.10;;
1460;SDS011;724;49.910;12.530;2023-09-12T09:27:03;13.10;;;12.40;;
1460;SDS011;724;49.910;12.530;2023-09-12T09:29:30;13.00;;;12.30;;
1460;SDS011;724;49.910;12.530;2023-09-12T09:31:59;12.77;;;12.07;;
1460;SDS011;724;49.910;12.530;2023-09-12T09:34:26;12.80;;;12.10;;
1460;SDS011;724;49.910;12.530;2023-09-12T09:36:55;13.10;;;12.40;;
1460;SDS011;724;49.910;12.530;2023-09-12T09:39:23;13.20;;;12.50;;
1460;SDS011;724;49.910;12.530;2023-09-12T09:41:52;13.00;;;12.30;;
1460;SDS011;724;49.910;12.530;2023-09-12T09:44:22;13.40;;;12.70;;
1460;SDS011;724;49.910;12.530;2023-09-12T09:46:52;13.00;;;12.30;;
1460;SDS011;724;49.910;12.530;2023-09-12T09:49:20;12.30;;;11.70;;
1460;SDS011;724;49.910;12.530;2023-09-12T09:51:47;12.90;;;12.20;;
1460;SDS011;724;49.910;12.530;2023-09-12T09:54:14;12.90;;;12.20;;
1460;SDS011;724;49.910;12.530;2023-09-12T09:56:44;12.87;;;12.17;;
1460;SDS011;724;49.910;12.530;2023-09-12T09:59:13;12.90;;;12.20;;
1460;SDS011;724;49.910;12.530;2023-09-12T10:01:42;13.17;;;12.47;;
1460;SDS011;724;49.910;12.530;2023-09-12T10:04:10;12.90;;;12.20;;
1460;SDS011;724;49.910;12.530;2023-09-12T10:06:37;12.80;;;12.10;;
1460;SDS011;724;49.910;12.530;2023-09-12T10:09:06;12.90;;;12.20;;
1460;SDS011;724;49.910;12.530;2023-09-12T10:11:35;13.10;;;12.40;;
1460;SDS011;724;49.910;12.530;2023-09-12T10:14:05;12.90;;;12.20;;
1460;SDS011;724;49.910;12.530;2023-09-12T10:16:33;13.00;;;12.30;;
1460;SDS011;724;49.910;12.530;2023-09-12T10:19:04;13.17;;;12.47;;
1460;SDS011;724;49.910;12.530;2023-09-12T10:21:37;12.80;;;12.10;;
1460;SDS011;724;49.910;12.530;2023-09-12T10:24:12;12.70;;;12.00;;
1460;SDS011;724;49.910;12.530;2023-09-12T10:26:40;13.20;;;12.50;;
1460;SDS011;724;49.910;12.530;2023-09-12T10:29:10;13.20;;;12.50;;
1460;SDS011;724;49.910;12.530;2023-09-12T10:31:40;13.60;;;12.90;;
1460;SDS011;724;49.910;12.530;2023-09-12T10:34:08;13.00;;;12.30;;
1460;SDS011;724;49.910;12.530;2023-09-12T10:36:38;13.10;;;12.40;;
1460;SDS011;724;49.910;12.530;2023-09-12T10:39:07;13.30;;;12.60;;
1460;SDS011;724;49.910;12.530;2023-09-12T10:41:36;13.30;;;12.60;;
1460;SDS011;724;49.910;12.530;2023-09-12T10:44:05;13.30;;;12.60;;
1460;SDS011;724;49.910;12.530;2023-09-12T10:46:35;13.00;;;12.30;;
1460;SDS011;724;49.910;12.530;2023-09-12T10:49:05;13.13;;;12.43;;
1460;SDS011;724;49.910;12.530;2023-09-12T10:51:34;12.40;;;11.80;;
1460;SDS011;724;49.910;12.530;2023-09-12T10:54:03;12.83;;;12.13;;
1460;SDS011;724;49.910;12.530;2023-09-12T10:56:31;12.70;;;12.00;;
1460;SDS011;724;49.910;12.530;2023-09-12T10:59:09;12.70;;;12.00;;
1460;SDS011;724;49.910;12.530;2023-09-12T11:01:37;12.30;;;11.70;;
1460;SDS011;724;49.910;12.530;2023-09-12T11:07:01;12.63;;;11.97;;
1460;SDS011;724;49.910;12.530;2023-09-12T11:09:51;12.30;;;11.70;;
1460;SDS011;724;49.910;12.530;2023-09-12T11:12:46;12.23;;;11.63;;
1460;SDS011;724;49.910;12.530;2023-09-12T11:15:14;12.37;;;11.77;;
1460;SDS011;724;49.910;12.530;2023-09-12T11:17:42;12.20;;;11.60;;
1460;SDS011;724;49.910;12.530;2023-09-12T11:20:09;12.57;;;11.93;;
1460;SDS011;724;49.910;12.530;2023-09-12T11:22:38;12.57;;;11.93;;
1460;SDS011;724;49.910;12.530;2023-09-12T11:25:15;12.93;;;12.23;;
1460;SDS011;724;49.910;12.530;2023-09-12T11:28:01;13.03;;;12.33;;
1460;SDS011;724;49.910;12.530;2023-09-12T11:30:30;12.70;;;12.00;;
1460;SDS011;724;49.910;12.530;2023-09-12T11:32:57;12.70;;;12.00;;
1460;SDS011;724;49.910;12.530;2023-09-12T11:35:26;13.00;;;12.30;;
1460;SDS011;724;49.910;12.530;2023-09-12T11:37:56;13.23;;;12.53;;
1460;SDS011;724;49.910;12.530;2023-09-12T11:40:26;13.10;;;12.40;;
1460;SDS011;724;49.910;12.530;2023-09-12T11:43:07;12.50;;;11.90;;
1460;SDS011;724;49.910;12.530;2023-09-12T11:45:44;12.37;;;11.77;;
1460;SDS011;724;49.910;12.530;2023-09-12T11:48:10;13.03;;;12.33;;
1460;SDS011;724;49.910;12.530;2023-09-12T11:50:37;12.70;;;12.00;;
1460;SDS011;724;49.910;12.530;2023-09-12T11:53:08;12.70;;;12.00;;
1460;SDS011;724;49.910;12.530;2023-09-12T11:55:36;12.40;;;11.80;;
1460;SDS011;724;49.910;12.530;2023-09-12T11:58:09;12.77;;;12.07;;
1460;SDS011;724;49.910;12.530;2023-09-12T12:00:36;12.20;;;11.60;;
1460;SDS011;724;49.910;12.530;2023-09-12T12:03:04;11.90;;;11.30;;
1460;SDS011;724;49.910;12.530;2023-09-12T12:05:31;12.47;;;11.87;;
1460;SDS011;724;49.910;12.530;2023-09-12T12:08:00;12.20;;;11.60;;
1460;SDS011;724;49.910;12.530;2023-09-12T12:10:29;12.30;;;11.70;;
1460;SDS011;724;49.910;12.530;2023-09-12T12:12:56;11.90;;;11.30;;
1460;SDS011;724;49.910;12.530;2023-09-12T12:15:22;12.10;;;11.50;;
1460;SDS011;724;49.910;12.530;2023-09-12T12:17:53;11.93;;;11.33;;
1460;SDS011;724;49.910;12.530;2023-09-12T12:20:20;11.83;;;11.23;;
1460;SDS011;724;49.910;12.530;2023-09-12T12:22:47;11.80;;;11.20;;
1460;SDS011;724;49.910;12.530;2023-09-12T12:25:16;11.70;;;11.10;;
1460;SDS011;724;49.910;12.530;2023-09-12T12:27:45;11.93;;;11.33;;
1460;SDS011;724;49.910;12.530;2023-09-12T12:30:13;11.80;;;11.20;;
1460;SDS011;724;49.910;12.530;2023-09-12T12:32:40;11.67;;;11.07;;
1460;SDS011;724;49.910;12.530;2023-09-12T12:35:08;12.37;;;11.77;;
1460;SDS011;724;49.910;12.530;2023-09-12T12:37:35;11.77;;;11.17;;
1460;SDS011;724;49.910;12.530;2023-09-12T12:40:03;11.57;;;10.97;;
1460;SDS011;724;49.910;12.530;2023-09-12T12:42:34;11.50;;;10.90;;
1460;SDS011;724;49.910;12.530;2023-09-12T12:45:05;11.20;;;10.60;;
1460;SDS011;724;49.910;12.530;2023-09-12T12:47:37;11.67;;;11.07;;
1460;SDS011;724;49.910;12.530;2023-09-12T12:50:06;11.33;;;10.73;;
1460;SDS011;724;49.910;12.530;2023-09-12T12:52:34;11.20;;;10.60;;
1460;SDS011;724;49.910;12.530;2023-09-12T12:55:05;11.70;;;11.10;;
1460;SDS011;724;49.910;12.530;2023-09-12T12:57:35;11.43;;;10.83;;
1460;SDS011;724;49.910;12.530;2023-09-12T13:00:06;11.50;;;10.90;;
1460;SDS011;724;49.910;12.530;2023-09-12T13:02:35;11.70;;;11.10;;
1460;SDS011;724;49.910;12.530;2023-09-12T13:05:02;11.93;;;11.33;;
1460;SDS011;724;49.910;12.530;2023-09-12T13:07:32;11.87;;;11.27;;
1460;SDS011;724;49.910;12.530;2023-09-12T13:09:59;11.40;;;10.80;;
1460;SDS011;724;49.910;12.530;2023-09-12T13:12:27;11.27;;;10.67;;
1460;SDS011;724;49.910;12.530;2023-09-12T13:14:54;11.50;;;10.90;;
1460;SDS011;724;49.910;12.530;2023-09-12T13:17:22;11.20;;;10.60;;
1460;SDS011;724;49.910;12.530;2023-09-12T13:19:49;10.93;;;10.33;;
1460;SDS011;724;49.910;12.530;2023-09-12T13:22:16;11.30;;;10.70;;
1460;SDS011;724;49.910;12.530;2023-09-12T13:24:43;11.10;;;10.50;;
1460;SDS011;724;49.910;12.530;2023-09-12T13:27:10;11.40;;;10.80;;
1460;SDS011;724;49.910;12.530;2023-09-12T13:29:36;11.40;;;10.80;;
1460;SDS011;724;49.910;12.530;2023-09-12T13:32:03;11.47;;;10.87;;
1460;SDS011;724;49.910;12.530;2023-09-12T13:34:32;10.63;;;10.03;;
1460;SDS011;724;49.910;12.530;2023-09-12T13:36:59;10.23;;;9.73;;
1460;SDS011;724;49.910;12.530;2023-09-12T13:39:25;10.10;;;9.60;;
1460;SDS011;724;49.910;12.530;2023-09-12T13:41:52;10.77;;;10.17;;
1460;SDS011;724;49.910;12.530;2023-09-12T13:44:22;11.43;;;10.83;;
1460;SDS011;724;49.910;12.530;2023-09-12T13:46:49;10.70;;;10.10;;
1460;SDS011;724;49.910;12.530;2023-09-12T13:49:16;11.60;;;11.00;;
1460;SDS011;724;49.910;12.530;2023-09-12T13:51:44;11.20;;;10.60;;
1460;SDS011;724;49.910;12.530;2023-09-12T13:54:11;11.53;;;10.93;;
1460;SDS011;724;49.910;12.530;2023-09-12T13:56:39;12.00;;;11.40;;
1460;SDS011;724;49.910;12.530;2023-09-12T13:59:06;11.83;;;11.23;;
1460;SDS011;724;49.910;12.530;2023-09-12T14:01:33;10.93;;;10.33;;
1460;SDS011;724;49.910;12.530;2023-09-12T14:04:00;10.83;;;10.23;;
1460;SDS011;724;49.910;12.530;2023-09-12T14:06:27;10.20;;;9.70;;
1460;SDS011;724;49.910;12.530;2023-09-12T14:08:55;10.80;;;10.20;;
1460;SDS011;724;49.910;12.530;2023-09-12T14:11:22;10.30;;;9.80;;
1460;SDS011;724;49.910;12.530;2023-09-12T14:13:48;10.60;;;10.00;;
1460;SDS011;724;49.910;12.530;2023-09-12T14:16:15;11.00;;;10.40;;
1460;SDS011;724;49.910;12.530;2023-09-12T14:18:42;11.10;;;10.50;;
1460;SDS011;724;49.910;12.530;2023-09-12T14:21:09;10.70;;;10.10;;
1460;SDS011;724;49.910;12.530;2023-09-12T14:23:35;11.10;;;10.50;;
1460;SDS011;724;49.910;12.530;2023-09-12T14:26:03;10.77;;;10.17;;
1460;SDS011;724;49.910;12.530;2023-09-12T14:28:30;11.10;;;10.50;;
1460;SDS011;724;49.910;12.530;2023-09-12T14:30:59;10.40;;;9.90;;
1460;SDS011;724;49.910;12.530;2023-09-12T14:33:26;10.97;;;10.37;;
1460;SDS011;724;49.910;12.530;2023-09-12T14:35:52;11.10;;;10.50;;
1460;SDS011;724;49.910;12.530;2023-09-12T14:38:19;11.30;;;10.70;;
1460;SDS011;724;49.910;12.530;2023-09-12T14:40:46;11.10;;;10.50;;
1460;SDS011;724;49.910;12.530;2023-09-12T14:43:14;11.00;;;10.40;;
1460;SDS011;724;49.910;12.530;2023-09-12T14:45:41;11.40;;;10.80;;
1460;SDS011;724;49.910;12.530;2023-09-12T14:48:08;11.10;;;10.50;;
1460;SDS011;724;49.910;12.530;2023-09-12T14:50:35;11.00;;;10.40;;
1460;SDS011;724;49.910;12.530;2023-09-12T14:53:01;11.37;;;10.77;;
1460;SDS011;724;49.910;12.530;2023-09-12T14:55:28;11.43;;;10.83;;
1460;SDS011;724;49.910;12.530;2023-09-12T14:57:58;11.20;;;10.60;;
1460;SDS011;724;49.910;12.530;2023-09-12T15:00:26;11.30;;;10.70;;
1460;SDS011;724;49.910;12.530;2023-09-12T15:02:53;10.93;;;10.33;;
1460;SDS011;724;49.910;12.530;2023-09-12T15:05:20;10.90;;;10.30;;